Time;durP1;ratioP1;P1;durP2;ratioP2;P2;SDS_P1;SDS_P2;PMS_P1;PMS_P2;Temp;Humidity;BMP_temperature;BMP_pressure;BME280_temperature;BME280_humidity;BME280_pressure;Samples;Min_cycle;Max_cycle;Signal;HPM_P1;HPM_P2
2023/01/31 00:00:13;;;;;;;10.03;4.60;;;;;;;8.42;53.34;99653.25;7004108;28;20274;-80
2023/01/31 00:03:34;;;;;;;12.43;4.80;;;;;;;8.64;52.99;99649.84;7004080;28;20210;-80
2023/01/31 00:06:56;;;;;;;8.93;5.20;;;;;;;8.20;54.04;99643.19;7004474;28;20315;-80
2023/01/31 00:10:19;;;;;;;13.37;5.77;;;;;;;8.55;52.95;99653.53;7006304;28;20280;-80
2023/01/31 00:13:40;;;;;;;9.17;5.10;;;;;;;8.39;53.43;99650.91;7024198;28;20205;-80
2023/01/31 00:17:02;;;;;;;8.87;5.07;;;;;;;7.94;53.71;99629.09;7007376;28;20257;-80
2023/01/31 00:20:23;;;;;;;7.77;4.60;;;;;;;8.45;53.08;99636.78;7017609;28;20207;-81
2023/01/31 00:23:46;;;;;;;11.73;4.33;;;;;;;8.21;53.31;99642.22;7030279;28;20274;-81
2023/01/31 00:27:09;;;;;;;9.33;4.50;;;;;;;8.56;51.95;99640.94;7029986;28;20275;-80
2023/01/31 00:30:31;;;;;;;6.20;4.47;;;;;;;8.32;52.87;99641.00;7029628;28;20322;-80
2023/01/31 00:33:53;;;;;;;8.80;4.77;;;;;;;8.40;52.40;99644.53;7030916;28;20249;-80
2023/01/31 00:37:15;;;;;;;9.97;4.97;;;;;;;8.30;52.61;99656.47;7030219;28;20372;-80
2023/01/31 00:40:36;;;;;;;9.13;4.90;;;;;;;8.24;52.65;99641.03;7030491;28;20203;-80
2023/01/31 00:43:59;;;;;;;11.37;4.50;;;;;;;8.38;52.62;99656.44;7030689;28;20299;-80
2023/01/31 00:47:21;;;;;;;9.37;4.93;;;;;;;8.59;51.88;99644.13;7029911;28;20712;-81
2023/01/31 00:50:42;;;;;;;7.87;3.97;;;;;;;8.37;52.22;99649.41;7030195;28;20368;-80
2023/01/31 00:54:04;;;;;;;8.80;4.13;;;;;;;8.66;51.31;99645.13;7030279;28;20705;-80
2023/01/31 00:57:25;;;;;;;7.70;4.60;;;;;;;8.49;51.58;99648.84;7029358;28;20285;-80
2023/01/31 01:00:49;;;;;;;8.70;4.60;;;;;;;8.35;51.84;99657.63;7030228;28;20236;-80
2023/01/31 01:04:11;;;;;;;10.33;4.90;;;;;;;8.42;51.74;99644.34;7030056;28;20656;-80
2023/01/31 01:07:32;;;;;;;8.13;4.57;;;;;;;8.69;51.05;99655.53;7029963;28;20315;-80
2023/01/31 01:10:54;;;;;;;12.87;4.90;;;;;;;8.74;50.79;99633.50;7029988;28;20322;-80
2023/01/31 01:14:15;;;;;;;10.97;5.10;;;;;;;8.84;50.30;99652.97;7029421;28;20354;-80
2023/01/31 01:17:38;;;;;;;6.40;4.40;;;;;;;8.52;50.66;99639.59;7029600;28;20315;-80
2023/01/31 01:21:05;;;;;;;9.77;4.63;;;;;;;8.78;50.57;99659.03;7030097;28;20329;-80
2023/01/31 01:24:27;;;;;;;9.73;4.50;;;;;;;8.67;50.62;99656.72;7029021;28;20252;-80
2023/01/31 01:27:49;;;;;;;8.37;4.20;;;;;;;8.74;50.46;99660.38;7029696;28;20267;-80
2023/01/31 01:31:12;;;;;;;8.57;4.00;;;;;;;8.51;50.65;99662.13;7028252;28;20277;-80
2023/01/31 01:34:36;;;;;;;8.27;4.50;;;;;;;8.62;50.81;99645.63;7029331;28;20196;-80
2023/01/31 01:37:57;;;;;;;7.70;4.17;;;;;;;8.60;50.34;99632.38;7029889;28;20310;-80
2023/01/31 01:41:20;;;;;;;6.20;4.00;;;;;;;8.84;50.23;99650.28;7029836;28;20268;-80
2023/01/31 01:44:52;;;;;;;6.13;4.30;;;;;;;8.66;50.38;99658.56;7029680;28;20377;-80
2023/01/31 01:48:16;;;;;;;10.07;4.33;;;;;;;8.72;50.29;99657.88;7029086;28;20268;-80
2023/01/31 01:51:40;;;;;;;4.90;4.03;;;;;;;8.78;50.13;99664.41;7029595;28;20298;-80
2023/01/31 01:55:05;;;;;;;10.67;4.13;;;;;;;8.45;50.85;99674.41;7029393;28;20342;-80
2023/01/31 01:58:31;;;;;;;6.80;4.10;;;;;;;8.54;50.58;99677.94;7029710;28;20217;-80
2023/01/31 02:01:52;;;;;;;10.50;4.33;;;;;;;8.70;50.32;99669.81;7029362;28;20297;-80
2023/01/31 02:05:17;;;;;;;6.90;4.30;;;;;;;8.63;50.75;99683.09;7029118;28;20748;-80
2023/01/31 02:08:42;;;;;;;8.47;3.93;;;;;;;8.70;50.32;99686.78;7029604;28;20777;-81
2023/01/31 02:12:04;;;;;;;6.87;4.30;;;;;;;8.94;50.11;99684.03;7029590;28;20321;-80
2023/01/31 02:15:25;;;;;;;9.87;4.50;;;;;;;9.03;49.67;99677.63;7028995;28;20366;-80
2023/01/31 02:18:48;;;;;;;9.77;5.17;;;;;;;8.60;50.89;99682.63;7029767;28;20395;-80
2023/01/31 02:22:15;;;;;;;6.97;4.10;;;;;;;8.74;50.48;99661.25;7029335;28;20263;-80
2023/01/31 02:26:10;;;;;;;14.10;5.03;;;;;;;8.83;50.09;99660.19;7029087;28;20186;-80
2023/01/31 02:29:50;;;;;;;10.77;4.93;;;;;;;8.64;50.90;99690.16;7028635;28;20273;-80
2023/01/31 02:33:21;;;;;;;8.53;4.90;;;;;;;8.72;50.97;99697.38;7029572;28;20221;-80
2023/01/31 02:36:51;;;;;;;9.10;4.93;;;;;;;8.22;52.19;99702.13;7034596;28;20281;-80
2023/01/31 02:40:19;;;;;;;7.03;4.47;;;;;;;8.18;51.99;99669.34;7037381;28;20259;-80
2023/01/31 02:47:31;;;;;;;9.67;4.57;;;;;;;8.43;51.82;99703.28;7032512;28;20720;-80
2023/01/31 02:50:59;;;;;;;12.60;4.53;;;;;;;8.58;52.01;99703.44;7034017;28;20236;-80
2023/01/31 02:56:13;;;;;;;8.30;5.00;;;;;;;8.53;51.81;99700.41;7033399;28;20245;-80
2023/01/31 02:58:07;;;;;;;10.20;5.40;;;;;;;8.50;51.80;99690.00;7032990;28;20587;-80
2023/01/31 03:01:32;;;;;;;7.40;4.40;;;;;;;8.59;51.76;99703.25;7033115;28;20241;-81
2023/01/31 03:04:53;;;;;;;9.80;5.17;;;;;;;8.43;51.67;99695.22;7032673;28;20347;-81
2023/01/31 03:08:21;;;;;;;10.77;4.60;;;;;;;8.35;51.83;99684.50;7032585;28;20224;-81
2023/01/31 03:12:01;;;;;;;9.97;5.00;;;;;;;8.73;51.62;99704.41;7032804;28;20217;-81
2023/01/31 03:19:29;;;;;;;15.13;5.60;;;;;;;8.32;52.18;99686.69;7032578;28;20607;-80
2023/01/31 03:22:56;;;;;;;12.23;6.30;;;;;;;8.69;51.23;99698.56;7033050;28;20195;-80
2023/01/31 03:26:20;;;;;;;15.07;5.77;;;;;;;8.77;50.93;99703.06;7032136;28;20255;-81
2023/01/31 03:29:43;;;;;;;10.13;4.53;;;;;;;8.40;52.18;99702.78;7031009;28;20239;-81
2023/01/31 03:33:08;;;;;;;7.23;4.77;;;;;;;8.69;52.03;99714.69;7033107;28;20705;-80
2023/01/31 03:36:35;;;;;;;13.93;5.77;;;;;;;8.24;52.83;99722.44;7032342;28;20648;-81
2023/01/31 03:40:00;;;;;;;8.03;4.83;;;;;;;8.39;52.59;99733.34;7032921;28;20185;-81
2023/01/31 03:43:27;;;;;;;9.67;4.60;;;;;;;8.28;52.53;99728.31;7032707;28;20337;-80
2023/01/31 03:46:51;;;;;;;9.23;5.47;;;;;;;7.80;53.32;99728.25;7031465;28;20281;-81
2023/01/31 03:50:16;;;;;;;8.20;4.70;;;;;;;7.97;53.07;99708.47;7032233;28;20234;-80
2023/01/31 03:53:40;;;;;;;8.43;5.20;;;;;;;8.19;53.23;99730.13;7032280;28;20731;-81
2023/01/31 03:57:05;;;;;;;9.53;5.53;;;;;;;8.42;52.40;99703.47;7031196;28;20228;-81
2023/01/31 04:00:28;;;;;;;13.53;5.00;;;;;;;8.57;52.15;99702.59;7031996;28;20213;-80
2023/01/31 04:03:53;;;;;;;12.40;5.27;;;;;;;8.48;52.81;99725.13;7032148;28;20315;-80
2023/01/31 04:07:16;;;;;;;11.07;5.40;;;;;;;8.26;53.44;99724.97;7031649;28;20706;-80
2023/01/31 04:10:38;;;;;;;9.70;5.60;;;;;;;7.65;53.83;99698.53;7032269;28;20226;-81
2023/01/31 04:13:59;;;;;;;8.70;4.73;;;;;;;8.23;53.14;99752.16;7031508;28;20347;-80
2023/01/31 04:17:22;;;;;;;15.30;5.73;;;;;;;8.21;53.23;99748.81;7031255;28;20225;-81
2023/01/31 04:20:44;;;;;;;10.87;6.50;;;;;;;8.29;52.90;99746.09;7025063;28;20256;-80
2023/01/31 04:24:08;;;;;;;12.50;6.17;;;;;;;8.17;53.32;99744.72;7031549;28;20416;-80
2023/01/31 04:27:29;;;;;;;7.73;4.80;;;;;;;7.87;53.03;99714.00;7030892;28;20234;-80
2023/01/31 04:30:52;;;;;;;9.07;5.77;;;;;;;7.93;53.95;99747.38;7029816;28;20368;-80
2023/01/31 04:34:15;;;;;;;10.37;5.20;;;;;;;8.14;52.69;99750.44;7030771;28;20220;-80
2023/01/31 04:37:37;;;;;;;12.23;5.20;;;;;;;8.45;52.52;99727.31;7031134;28;20233;-80
2023/01/31 04:40:58;;;;;;;17.30;5.60;;;;;;;7.92;52.96;99721.56;7030930;28;20207;-81
2023/01/31 04:44:20;;;;;;;13.37;5.00;;;;;;;8.21;52.31;99732.69;7030300;28;20696;-81
2023/01/31 04:47:41;;;;;;;12.20;5.67;;;;;;;8.37;52.13;99746.94;7030778;28;20295;-80
2023/01/31 04:51:04;;;;;;;10.87;4.67;;;;;;;8.31;52.09;99749.50;7031046;28;20679;-80
2023/01/31 04:54:26;;;;;;;10.10;5.50;;;;;;;7.92;52.42;99741.19;7030566;28;20340;-80
2023/01/31 04:57:47;;;;;;;9.47;5.03;;;;;;;8.26;51.89;99746.47;7030176;28;20278;-80
2023/01/31 05:01:09;;;;;;;10.67;4.70;;;;;;;8.24;51.68;99751.16;7031057;28;20691;-80
2023/01/31 05:04:30;;;;;;;10.83;4.80;;;;;;;8.18;51.86;99744.56;7030129;28;20326;-80
2023/01/31 05:07:53;;;;;;;9.17;4.83;;;;;;;8.07;51.74;99734.16;7030122;28;20270;-80
2023/01/31 05:11:14;;;;;;;11.90;4.83;;;;;;;8.04;51.57;99745.25;7029948;28;20288;-80
2023/01/31 05:14:36;;;;;;;13.10;5.13;;;;;;;7.47;52.77;99740.75;7029699;28;20598;-80
2023/01/31 05:18:01;;;;;;;10.13;5.20;;;;;;;7.94;52.21;99741.00;7029851;28;20309;-80
2023/01/31 05:21:23;;;;;;;16.50;5.77;;;;;;;7.40;53.19;99749.59;7030493;28;20304;-80
2023/01/31 05:24:45;;;;;;;6.83;4.67;;;;;;;8.07;52.19;99744.06;7029921;28;20372;-80
2023/01/31 05:28:07;;;;;;;13.17;5.33;;;;;;;7.01;54.28;99718.94;7030682;28;20317;-80
2023/01/31 05:31:29;;;;;;;9.47;4.80;;;;;;;7.93;52.60;99737.50;7029025;28;20225;-80
2023/01/31 05:34:50;;;;;;;11.93;5.37;;;;;;;7.82;52.69;99745.88;7030420;28;20259;-80
2023/01/31 05:38:12;;;;;;;15.93;5.97;;;;;;;7.49;53.76;99754.81;7030252;28;20317;-80
2023/01/31 05:41:34;;;;;;;9.70;5.23;;;;;;;7.24;54.53;99763.78;7031124;28;20342;-80
2023/01/31 05:44:56;;;;;;;12.07;6.17;;;;;;;7.25;54.95;99757.41;7030500;28;20290;-80
2023/01/31 05:48:17;;;;;;;7.47;5.57;;;;;;;6.95;55.44;99765.97;7029666;28;20408;-80
2023/01/31 05:51:39;;;;;;;8.33;5.90;;;;;;;7.82;53.48;99742.34;7030328;28;20236;-80
2023/01/31 05:55:00;;;;;;;11.13;5.83;;;;;;;6.96;54.45;99699.81;7032967;28;20270;-80
2023/01/31 05:58:23;;;;;;;11.57;5.97;;;;;;;7.50;54.14;99761.91;7033659;28;20253;-80
2023/01/31 06:01:45;;;;;;;7.80;6.30;;;;;;;7.43;53.82;99709.03;7030426;28;20205;-80
2023/01/31 06:05:07;;;;;;;10.70;5.83;;;;;;;7.46;54.07;99763.22;7028185;28;20295;-81
2023/01/31 06:08:28;;;;;;;12.17;6.07;;;;;;;7.24;54.54;99750.38;7028786;28;20228;-80
2023/01/31 06:11:50;;;;;;;10.33;5.17;;;;;;;7.60;54.07;99759.91;7034266;28;20318;-80
2023/01/31 06:15:13;;;;;;;10.03;5.27;;;;;;;7.46;53.76;99754.31;7034223;28;20275;-80
2023/01/31 06:18:34;;;;;;;11.63;4.87;;;;;;;7.50;53.32;99744.94;7034113;28;20282;-80
2023/01/31 06:21:56;;;;;;;12.33;5.20;;;;;;;6.95;54.77;99749.91;7023346;28;20200;-80
2023/01/31 06:25:18;;;;;;;13.57;4.97;;;;;;;7.55;53.42;99767.59;7004889;28;20625;-80
2023/01/31 06:28:39;;;;;;;10.77;5.10;;;;;;;7.48;52.99;99741.59;7006324;28;20315;-80
2023/01/31 06:32:02;;;;;;;13.10;5.33;;;;;;;8.00;52.15;99770.75;7010493;28;20318;-81
2023/01/31 06:35:24;;;;;;;8.73;4.70;;;;;;;8.11;51.08;99772.25;7008341;28;20205;-80
2023/01/31 06:38:48;;;;;;;9.30;5.13;;;;;;;7.64;52.63;99771.16;7007643;28;20312;-79
2023/01/31 06:42:10;;;;;;;10.50;4.47;;;;;;;7.72;52.61;99766.66;7007640;28;20206;-79
2023/01/31 06:45:31;;;;;;;10.70;5.47;;;;;;;7.93;52.10;99766.19;7006723;28;20289;-80
2023/01/31 06:48:54;;;;;;;9.40;4.40;;;;;;;7.70;52.12;99771.34;7007530;28;20292;-80
2023/01/31 06:52:16;;;;;;;9.57;4.90;;;;;;;7.83;51.91;99769.03;7006459;28;20288;-79
2023/01/31 06:55:38;;;;;;;12.57;5.50;;;;;;;7.31;53.46;99745.22;7006231;28;20654;-80
2023/01/31 06:59:00;;;;;;;14.47;5.13;;;;;;;7.17;54.21;99764.59;7006174;28;20233;-80
2023/01/31 07:02:21;;;;;;;12.77;5.13;;;;;;;7.04;54.58;99756.16;7006646;28;20202;-80
2023/01/31 07:05:44;;;;;;;15.00;5.57;;;;;;;6.90;54.46;99749.53;7007939;28;20275;-80
2023/01/31 07:09:07;;;;;;;7.07;4.77;;;;;;;7.07;54.33;99740.56;7007910;28;20724;-80
2023/01/31 07:12:28;;;;;;;12.77;5.20;;;;;;;7.30;53.44;99756.97;7006935;28;20225;-79
2023/01/31 07:15:50;;;;;;;10.00;4.93;;;;;;;7.35;53.29;99744.72;7006796;28;20225;-79
2023/01/31 07:19:11;;;;;;;9.60;4.70;;;;;;;6.94;54.20;99748.22;7005828;28;20284;-80
2023/01/31 07:22:34;;;;;;;6.77;5.03;;;;;;;7.40;53.48;99761.19;7005607;28;20225;-79
2023/01/31 07:25:56;;;;;;;9.47;4.97;;;;;;;7.56;52.89;99772.00;7005105;28;20304;-79
2023/01/31 07:29:18;;;;;;;9.60;4.87;;;;;;;7.37;53.52;99769.53;7004339;28;20283;-79
2023/01/31 07:32:40;;;;;;;12.23;4.90;;;;;;;7.53;52.99;99766.06;7006026;28;20221;-80
2023/01/31 07:36:03;;;;;;;11.13;5.53;;;;;;;7.75;52.10;99768.16;7006037;28;20289;-80
2023/01/31 07:39:26;;;;;;;10.03;4.90;;;;;;;7.55;52.33;99772.97;7006255;28;20702;-80
2023/01/31 07:42:47;;;;;;;13.60;5.70;;;;;;;7.83;52.15;99779.75;7005949;28;20198;-80
2023/01/31 07:46:10;;;;;;;8.33;4.70;;;;;;;7.71;52.57;99783.75;7005029;28;20207;-80
2023/01/31 07:49:31;;;;;;;12.27;5.20;;;;;;;7.93;52.00;99788.53;7005677;28;20236;-80
2023/01/31 07:52:53;;;;;;;7.27;4.77;;;;;;;7.76;52.38;99789.47;7005965;28;20211;-81
2023/01/31 07:56:17;;;;;;;8.57;5.27;;;;;;;7.66;52.29;99747.69;7004855;28;20285;-80
2023/01/31 07:59:39;;;;;;;15.27;5.07;;;;;;;7.90;51.70;99779.97;7005668;28;20362;-80
2023/01/31 08:06:40;;;;;;;7.80;4.73;;;;;;;7.70;52.50;99784.75;7005140;28;20193;-80
2023/01/31 08:10:02;;;;;;;11.77;5.10;;;;;;;7.59;52.91;99787.75;7005896;28;20606;-80
2023/01/31 08:13:25;;;;;;;10.10;5.27;;;;;;;7.60;52.54;99778.69;7012982;28;20310;-80
2023/01/31 08:16:47;;;;;;;12.17;4.80;;;;;;;7.33;53.41;99778.94;7015727;28;20206;-80
2023/01/31 08:20:10;;;;;;;11.83;5.07;;;;;;;7.36;53.11;99761.69;7013472;28;20249;-81
2023/01/31 08:23:31;;;;;;;9.47;5.37;;;;;;;7.66;53.04;99787.94;7005741;28;20212;-80
2023/01/31 08:26:53;;;;;;;13.13;5.87;;;;;;;7.37;53.10;99758.00;7031572;28;20721;-80
2023/01/31 08:30:16;;;;;;;12.37;5.13;;;;;;;7.83;52.80;99774.41;7031802;28;20292;-80
2023/01/31 08:33:38;;;;;;;10.03;4.97;;;;;;;8.55;51.52;99790.63;7029681;28;20275;-80
2023/01/31 08:37:00;;;;;;;9.23;5.33;;;;;;;8.39;51.19;99773.66;7030871;28;20265;-80
2023/01/31 08:40:21;;;;;;;11.13;5.50;;;;;;;8.81;50.57;99790.44;7031494;28;20209;-80
2023/01/31 08:43:43;;;;;;;11.80;5.37;;;;;;;8.65;50.49;99785.06;7031758;28;20740;-81
2023/01/31 08:47:05;;;;;;;7.80;5.00;;;;;;;8.93;50.63;99778.31;7031165;28;20712;-80
2023/01/31 08:50:30;;;;;;;9.03;5.37;;;;;;;9.22;49.69;99782.94;7032385;28;20289;-81
2023/01/31 08:53:52;;;;;;;13.17;4.60;;;;;;;8.79;49.93;99770.94;7038454;28;20744;-81
2023/01/31 08:57:13;;;;;;;13.03;5.57;;;;;;;8.86;48.82;99719.00;7034560;28;20235;-81
2023/01/31 09:00:35;;;;;;;13.10;4.93;;;;;;;9.00;49.56;99780.16;7032143;28;20737;-81
2023/01/31 09:03:58;;;;;;;12.10;5.40;;;;;;;8.85;49.92;99789.91;7031557;28;20220;-80
2023/01/31 09:07:20;;;;;;;9.13;4.97;;;;;;;8.49;50.65;99785.09;7035344;28;20308;-81
2023/01/31 09:10:42;;;;;;;9.87;6.37;;;;;;;8.62;51.02;99780.91;7041307;28;20228;-81
2023/01/31 09:14:03;;;;;;;14.37;5.50;;;;;;;8.77;50.07;99787.25;7036214;28;20253;-80
2023/01/31 09:17:25;;;;;;;7.67;4.93;;;;;;;8.68;50.51;99792.81;7032156;28;20714;-81
2023/01/31 09:20:48;;;;;;;10.57;5.80;;;;;;;8.67;49.72;99740.88;7038130;28;20681;-81
2023/01/31 09:24:10;;;;;;;12.13;5.80;;;;;;;9.21;48.62;99759.75;7036545;28;20246;-81
2023/01/31 09:27:32;;;;;;;11.57;6.27;;;;;;;9.53;48.68;99793.78;7032763;28;20224;-81
2023/01/31 09:30:53;;;;;;;11.03;5.60;;;;;;;9.55;48.94;99768.38;7037708;28;20288;-81
2023/01/31 09:34:15;;;;;;;13.87;5.80;;;;;;;9.68;48.86;99770.50;7035370;28;20658;-80
2023/01/31 09:37:39;;;;;;;14.70;5.80;;;;;;;9.99;48.14;99780.22;7033120;28;20304;-80
2023/01/31 09:41:04;;;;;;;13.47;5.30;;;;;;;9.48;48.64;99788.94;7034008;28;20215;-80
2023/01/31 09:44:28;;;;;;;10.27;5.43;;;;;;;9.36;49.09;99779.56;7038109;28;20238;-81
2023/01/31 09:47:51;;;;;;;13.73;5.53;;;;;;;9.45;48.14;99751.56;7049073;28;20307;-80
2023/01/31 09:51:13;;;;;;;10.03;4.47;;;;;;;9.99;47.46;99763.25;7048866;28;20254;-81
2023/01/31 09:54:38;;;;;;;9.53;4.57;;;;;;;9.12;48.13;99781.47;7048186;28;20205;-81
2023/01/31 09:58:04;;;;;;;8.60;4.60;;;;;;;9.60;48.07;99786.66;7045348;28;20221;-81
2023/01/31 10:01:30;;;;;;;6.37;4.40;;;;;;;9.59;47.51;99787.69;7044822;28;20227;-81
2023/01/31 10:05:04;;;;;;;6.37;4.97;;;;;;;9.50;48.06;99781.50;7045200;28;20290;-80
2023/01/31 10:08:38;;;;;;;8.60;4.60;;;;;;;9.59;47.95;99758.06;7045261;28;20333;-81
2023/01/31 10:12:06;;;;;;;6.20;4.23;;;;;;;9.91;46.93;99782.97;7046695;28;20223;-80
2023/01/31 10:15:32;;;;;;;10.17;4.87;;;;;;;9.94;47.69;99776.41;7045984;28;20191;-81
2023/01/31 10:18:58;;;;;;;8.63;4.00;;;;;;;10.10;46.40;99787.94;7046654;28;20244;-80
2023/01/31 10:22:25;;;;;;;7.50;3.97;;;;;;;10.05;47.07;99784.13;7042937;28;20276;-81
2023/01/31 10:25:51;;;;;;;8.50;4.10;;;;;;;10.66;46.18;99773.19;7045419;28;20232;-81
2023/01/31 10:29:17;;;;;;;15.00;4.87;;;;;;;10.50;45.61;99746.38;7045948;28;20220;-80
2023/01/31 10:32:43;;;;;;;9.00;4.77;;;;;;;11.00;44.81;99755.50;7038204;28;20205;-80
2023/01/31 10:36:11;;;;;;;9.60;4.20;;;;;;;9.65;46.76;99760.06;7037444;28;20192;-80
2023/01/31 10:39:35;;;;;;;12.20;4.33;;;;;;;9.97;46.41;99755.34;7027965;28;20845;-80
2023/01/31 10:43:00;;;;;;;7.53;4.63;;;;;;;10.32;46.62;99759.31;7012663;28;20289;-80
2023/01/31 10:46:23;;;;;;;7.47;4.27;;;;;;;10.03;47.23;99756.50;7013580;28;20241;-80
2023/01/31 10:49:46;;;;;;;13.77;5.23;;;;;;;10.40;47.09;99749.31;7009408;28;20320;-80
2023/01/31 10:53:26;;;;;;;13.97;4.20;;;;;;;10.35;45.68;99742.78;7007164;28;20739;-80
2023/01/31 10:56:48;;;;;;;8.07;4.90;;;;;;;10.78;45.17;99763.63;7009913;28;20248;-80
2023/01/31 11:00:14;;;;;;;9.30;4.63;;;;;;;10.93;44.72;99762.63;7011343;28;20293;-80
2023/01/31 11:03:37;;;;;;;15.37;7.57;;;;;;;10.43;45.37;99727.41;7011417;28;20218;-79
2023/01/31 11:07:00;;;;;;;14.53;8.27;;;;;;;9.84;46.28;99751.53;7010619;28;20322;-80
2023/01/31 11:10:23;;;;;;;8.90;4.90;;;;;;;9.96;45.93;99747.41;7011997;28;20272;-79
2023/01/31 11:13:56;;;;;;;18.40;5.40;;;;;;;9.82;46.31;99692.47;7011878;28;20240;-79
2023/01/31 11:17:21;;;;;;;13.87;4.80;;;;;;;10.12;45.85;99734.72;7011121;28;20257;-80
2023/01/31 11:20:46;;;;;;;11.97;4.50;;;;;;;10.85;44.96;99713.31;7011618;28;20210;-80
2023/01/31 11:24:17;;;;;;;9.57;4.33;;;;;;;10.44;46.17;99701.25;7011771;28;20656;-79
2023/01/31 11:27:40;;;;;;;8.83;4.70;;;;;;;9.89;46.45;99703.38;7012504;28;20387;-80
2023/01/31 11:31:03;;;;;;;9.00;4.57;;;;;;;10.02;46.60;99696.38;7016065;28;20224;-80
2023/01/31 11:34:28;;;;;;;9.37;4.13;;;;;;;10.17;46.24;99699.16;7014015;28;20224;-79
2023/01/31 11:37:53;;;;;;;5.93;3.43;;;;;;;10.15;45.89;99685.84;7009844;28;20222;-81
2023/01/31 11:41:27;;;;;;;8.27;4.50;;;;;;;9.93;46.17;99661.59;7007663;28;20285;-80
2023/01/31 11:44:59;;;;;;;8.50;4.23;;;;;;;10.37;45.71;99689.53;7005647;28;20197;-80
2023/01/31 11:48:24;;;;;;;6.20;3.60;;;;;;;10.41;45.07;99643.19;7005951;28;20309;-80
2023/01/31 11:51:46;;;;;;;7.30;3.93;;;;;;;11.08;43.88;99670.91;7006388;28;20296;-80
2023/01/31 11:55:16;;;;;;;14.43;4.70;;;;;;;10.79;45.43;99673.59;7005158;28;20684;-80
2023/01/31 11:58:39;;;;;;;11.33;3.97;;;;;;;10.76;44.89;99642.47;7005607;28;20322;-80
2023/01/31 12:02:01;;;;;;;10.27;4.10;;;;;;;10.84;44.58;99655.84;7006100;28;20247;-80
2023/01/31 12:05:35;;;;;;;9.13;3.70;;;;;;;10.49;45.63;99661.09;7006865;28;20209;-80
2023/01/31 12:08:58;;;;;;;6.30;3.53;;;;;;;10.82;45.62;99670.53;7005357;28;20308;-80
2023/01/31 12:12:31;;;;;;;9.37;4.83;;;;;;;10.99;44.92;99653.16;7005483;28;20450;-80
2023/01/31 12:15:56;;;;;;;10.13;4.07;;;;;;;10.83;44.57;99647.94;7005827;28;20206;-80
2023/01/31 12:19:28;;;;;;;9.57;3.47;;;;;;;10.13;45.43;99619.69;7005153;28;20225;-80
2023/01/31 12:22:54;;;;;;;9.63;3.37;;;;;;;10.78;44.75;99628.75;7005388;28;20292;-81
2023/01/31 12:26:18;;;;;;;16.63;4.20;;;;;;;10.51;45.86;99637.50;7004770;28;20358;-80
2023/01/31 12:29:57;;;;;;;16.60;4.20;;;;;;;10.64;45.97;99610.72;7004547;28;20383;-80
2023/01/31 12:33:33;;;;;;;8.10;3.70;;;;;;;10.53;45.56;99603.09;7004337;28;20278;-79
2023/01/31 12:37:12;;;;;;;9.53;3.67;;;;;;;10.77;45.13;99592.03;7003726;28;20254;-80
2023/01/31 12:40:38;;;;;;;8.60;3.90;;;;;;;10.69;45.08;99555.19;7003928;28;20213;-81
2023/01/31 12:44:24;;;;;;;7.00;4.10;;;;;;;11.47;44.08;99587.69;7004009;28;20247;-80
2023/01/31 12:48:12;;;;;;;9.37;3.83;;;;;;;11.02;44.55;99585.28;7004845;28;20720;-80
2023/01/31 12:51:46;;;;;;;7.83;3.30;;;;;;;11.18;43.56;99560.78;7004806;28;20831;-80
2023/01/31 12:55:18;;;;;;;6.97;3.10;;;;;;;10.84;43.53;99557.88;7004333;28;20313;-80
2023/01/31 12:58:46;;;;;;;4.53;3.03;;;;;;;10.93;43.84;99529.78;7005292;28;20609;-81
2023/01/31 13:02:18;;;;;;;6.03;3.07;;;;;;;10.82;43.73;99568.88;7005369;28;20284;-80
2023/01/31 13:05:45;;;;;;;7.67;3.30;;;;;;;10.75;44.08;99559.84;7004281;28;20274;-80
2023/01/31 13:09:11;;;;;;;7.97;3.40;;;;;;;10.49;44.27;99555.97;7004120;28;20266;-80
2023/01/31 13:12:34;;;;;;;5.97;3.17;;;;;;;10.33;44.09;99572.34;7003771;28;20836;-80
2023/01/31 13:16:00;;;;;;;6.53;3.10;;;;;;;10.17;43.92;99538.28;7003333;28;20214;-80
2023/01/31 13:19:24;;;;;;;7.70;3.03;;;;;;;10.30;43.69;99562.75;7003723;28;20765;-80
2023/01/31 13:22:50;;;;;;;6.57;3.13;;;;;;;10.50;43.25;99553.09;7004565;28;20292;-80
2023/01/31 13:26:15;;;;;;;5.50;3.00;;;;;;;10.46;43.28;99532.91;7004013;28;20269;-80
2023/01/31 13:29:41;;;;;;;6.47;3.03;;;;;;;10.12;44.10;99526.41;7004129;28;20231;-80
2023/01/31 13:33:13;;;;;;;6.47;3.00;;;;;;;9.80;44.78;99543.69;7003475;28;20323;-80
2023/01/31 13:36:39;;;;;;;6.83;3.13;;;;;;;9.78;44.89;99547.56;7002692;28;20278;-80
2023/01/31 13:40:04;;;;;;;9.50;3.17;;;;;;;9.70;44.78;99520.72;7005148;28;20270;-80
2023/01/31 13:43:26;;;;;;;8.23;4.07;;;;;;;10.07;44.31;99561.13;7003839;28;20208;-81
2023/01/31 13:46:50;;;;;;;12.20;3.50;;;;;;;9.98;45.19;99565.72;7002719;28;20290;-80
2023/01/31 13:50:28;;;;;;;5.90;3.57;;;;;;;9.64;45.70;99548.38;7003584;28;20251;-80
2023/01/31 13:53:50;;;;;;;5.77;3.23;;;;;;;10.00;44.83;99565.56;7003682;28;20285;-80
2023/01/31 13:57:23;;;;;;;8.00;3.37;;;;;;;10.12;44.53;99556.03;7003858;28;20246;-80
2023/01/31 14:00:47;;;;;;;4.10;3.10;;;;;;;9.83;45.26;99556.81;7004008;28;20709;-80
2023/01/31 14:04:28;;;;;;;10.83;3.27;;;;;;;10.07;44.42;99553.06;7003791;28;20235;-80
2023/01/31 14:08:27;;;;;;;5.80;3.20;;;;;;;10.67;43.55;99577.97;7002954;28;20311;-80
2023/01/31 14:11:49;;;;;;;8.70;2.97;;;;;;;10.66;43.71;99546.66;7003197;28;20235;-80
2023/01/31 14:15:44;;;;;;;8.63;3.63;;;;;;;10.48;43.65;99557.84;7002913;28;20355;-80
2023/01/31 14:19:53;;;;;;;12.23;3.87;;;;;;;10.32;43.86;99544.53;7003088;28;20284;-80
2023/01/31 14:23:45;;;;;;;5.43;3.30;;;;;;;10.06;44.12;99516.38;7002569;28;20205;-80
2023/01/31 14:27:13;;;;;;;4.50;2.83;;;;;;;10.06;45.10;99516.38;7002527;28;20246;-80
2023/01/31 14:30:37;;;;;;;7.33;3.37;;;;;;;9.86;46.01;99534.06;7004398;28;20238;-80
2023/01/31 14:33:59;;;;;;;8.40;3.70;;;;;;;10.13;45.20;99531.63;7007329;28;20766;-80
2023/01/31 14:37:30;;;;;;;9.67;4.20;;;;;;;10.05;45.14;99525.47;7007243;28;20270;-80
2023/01/31 14:40:58;;;;;;;15.20;3.97;;;;;;;10.00;44.97;99531.38;7008104;28;20299;-80
2023/01/31 14:44:27;;;;;;;5.27;3.20;;;;;;;10.23;44.69;99507.09;7007761;28;20710;-80
2023/01/31 14:47:58;;;;;;;5.90;3.53;;;;;;;9.88;44.78;99491.59;7007938;28;20232;-80
2023/01/31 14:51:25;;;;;;;7.40;3.27;;;;;;;9.35;46.29;99518.66;7007598;28;20239;-80
2023/01/31 14:54:58;;;;;;;6.57;3.67;;;;;;;10.00;44.83;99526.00;7007580;28;20577;-80
2023/01/31 14:58:22;;;;;;;6.37;3.87;;;;;;;9.60;45.71;99539.84;7007284;28;20323;-80
2023/01/31 15:01:44;;;;;;;7.77;3.70;;;;;;;9.84;45.08;99533.38;7007828;28;20347;-80
2023/01/31 15:05:08;;;;;;;6.93;3.53;;;;;;;10.26;44.75;99510.25;7007512;28;20254;-80
2023/01/31 15:08:39;;;;;;;6.80;3.70;;;;;;;10.01;44.78;99516.88;7007400;28;20359;-80
2023/01/31 15:12:05;;;;;;;11.20;3.83;;;;;;;9.90;45.03;99513.78;7007893;28;20317;-80
2023/01/31 15:15:31;;;;;;;7.33;3.70;;;;;;;9.80;45.83;99524.00;7007499;28;20228;-80
2023/01/31 15:18:58;;;;;;;8.93;4.00;;;;;;;10.08;45.05;99515.16;7008059;28;20372;-80
2023/01/31 15:22:21;;;;;;;5.57;3.73;;;;;;;9.91;45.27;99547.78;7007156;28;20212;-80
2023/01/31 15:25:44;;;;;;;4.67;3.50;;;;;;;9.70;45.66;99551.16;7007678;28;20273;-80
2023/01/31 15:29:07;;;;;;;5.17;3.70;;;;;;;9.71;46.58;99544.78;7007671;28;20355;-80
2023/01/31 15:32:39;;;;;;;7.83;3.83;;;;;;;9.73;46.44;99550.81;7008151;28;20698;-80
2023/01/31 15:36:04;;;;;;;5.00;3.87;;;;;;;10.12;45.18;99542.56;7007114;28;20216;-80
2023/01/31 15:39:29;;;;;;;8.27;3.97;;;;;;;10.21;45.46;99545.00;7007512;28;20225;-80
2023/01/31 15:42:50;;;;;;;5.03;3.93;;;;;;;10.31;45.68;99542.00;7007031;28;20197;-80
2023/01/31 15:46:14;;;;;;;7.53;4.17;;;;;;;10.40;44.82;99530.94;7007521;28;20294;-80
2023/01/31 15:49:43;;;;;;;4.87;3.70;;;;;;;10.02;45.26;99525.78;7007697;28;20256;-80
2023/01/31 15:53:06;;;;;;;6.87;3.97;;;;;;;9.59;46.23;99540.84;7008292;28;20619;-80
2023/01/31 15:56:28;;;;;;;6.07;3.57;;;;;;;9.70;46.36;99537.72;7008017;28;20347;-80
2023/01/31 15:59:50;;;;;;;6.17;3.73;;;;;;;9.85;46.27;99548.50;7007638;28;20723;-80
2023/01/31 16:03:21;;;;;;;7.37;3.83;;;;;;;9.89;45.93;99529.13;7008329;28;20282;-80
2023/01/31 16:06:42;;;;;;;5.70;3.70;;;;;;;10.04;45.79;99535.41;7007588;28;20581;-80
2023/01/31 16:10:04;;;;;;;7.73;4.40;;;;;;;9.61;46.86;99552.28;7008155;28;20293;-80
2023/01/31 16:13:26;;;;;;;8.73;5.27;;;;;;;9.70;47.05;99558.44;7008161;28;20320;-80
2023/01/31 16:16:49;;;;;;;6.67;4.10;;;;;;;9.62;46.93;99561.19;7008472;28;20298;-80
2023/01/31 16:20:37;;;;;;;5.40;4.10;;;;;;;9.93;46.71;99557.34;7008007;28;20678;-80